sensor_id;sensor_type;location;lat;lon;timestamp;temperature;humidity
70708;SHT30;58277;47.316;18.908;2024-01-06T00:01:16;6.64;79.63
70708;SHT30;58277;47.316;18.908;2024-01-06T00:03:39;6.67;79.75
70708;SHT30;58277;47.316;18.908;2024-01-06T00:06:02;6.69;78.98
70708;SHT30;58277;47.316;18.908;2024-01-06T00:08:25;6.85;78.46
70708;SHT30;58277;47.316;18.908;2024-01-06T00:10:48;6.83;78.37
70708;SHT30;58277;47.316;18.908;2024-01-06T00:13:10;6.64;78.72
70708;SHT30;58277;47.316;18.908;2024-01-06T00:15:33;6.60;79.04
70708;SHT30;58277;47.316;18.908;2024-01-06T00:17:56;6.61;79.00
70708;SHT30;58277;47.316;18.908;2024-01-06T00:20:19;6.63;79.36
70708;SHT30;58277;47.316;18.908;2024-01-06T00:22:42;6.60;79.15
70708;SHT30;58277;47.316;18.908;2024-01-06T00:25:07;6.51;79.02
70708;SHT30;58277;47.316;18.908;2024-01-06T00:27:29;6.56;79.25
70708;SHT30;58277;47.316;18.908;2024-01-06T00:29:52;6.44;79.33
70708;SHT30;58277;47.316;18.908;2024-01-06T00:32:15;6.42;79.27
70708;SHT30;58277;47.316;18.908;2024-01-06T00:34:37;6.25;79.73
70708;SHT30;58277;47.316;18.908;2024-01-06T00:37:00;6.19;79.94
70708;SHT30;58277;47.316;18.908;2024-01-06T00:39:23;6.16;80.12
70708;SHT30;58277;47.316;18.908;2024-01-06T00:41:46;6.11;80.29
70708;SHT30;58277;47.316;18.908;2024-01-06T00:44:08;6.13;80.45
70708;SHT30;58277;47.316;18.908;2024-01-06T00:46:31;6.04;80.74
70708;SHT30;58277;47.316;18.908;2024-01-06T00:48:54;5.98;81.13
70708;SHT30;58277;47.316;18.908;2024-01-06T00:51:17;5.95;81.29
70708;SHT30;58277;47.316;18.908;2024-01-06T00:53:40;5.91;81.59
70708;SHT30;58277;47.316;18.908;2024-01-06T00:56:03;5.92;81.72
70708;SHT30;58277;47.316;18.908;2024-01-06T00:58:26;5.87;81.97
70708;SHT30;58277;47.316;18.908;2024-01-06T01:00:48;5.85;82.05
70708;SHT30;58277;47.316;18.908;2024-01-06T01:03:12;5.95;82.00
70708;SHT30;58277;47.316;18.908;2024-01-06T01:05:35;6.02;81.92
70708;SHT30;58277;47.316;18.908;2024-01-06T01:07:58;6.01;81.91
70708;SHT30;58277;47.316;18.908;2024-01-06T01:10:21;5.99;82.12
70708;SHT30;58277;47.316;18.908;2024-01-06T01:12:44;5.95;82.30
70708;SHT30;58277;47.316;18.908;2024-01-06T01:15:07;5.98;82.47
70708;SHT30;58277;47.316;18.908;2024-01-06T01:17:30;5.98;82.57
70708;SHT30;58277;47.316;18.908;2024-01-06T01:19:53;5.99;82.65
70708;SHT30;58277;47.316;18.908;2024-01-06T01:22:16;6.01;82.72
70708;SHT30;58277;47.316;18.908;2024-01-06T01:24:39;6.04;82.78
70708;SHT30;58277;47.316;18.908;2024-01-06T01:27:03;6.09;82.75
70708;SHT30;58277;47.316;18.908;2024-01-06T01:29:26;6.18;82.38
70708;SHT30;58277;47.316;18.908;2024-01-06T01:31:49;6.19;82.36
70708;SHT30;58277;47.316;18.908;2024-01-06T01:34:12;6.12;82.64
70708;SHT30;58277;47.316;18.908;2024-01-06T01:36:35;6.18;82.68
70708;SHT30;58277;47.316;18.908;2024-01-06T01:38:58;6.23;82.42
70708;SHT30;58277;47.316;18.908;2024-01-06T01:41:21;6.28;82.43
70708;SHT30;58277;47.316;18.908;2024-01-06T01:43:45;6.37;82.10
70708;SHT30;58277;47.316;18.908;2024-01-06T01:46:08;6.30;82.31
70708;SHT30;58277;47.316;18.908;2024-01-06T01:48:32;6.28;82.53
70708;SHT30;58277;47.316;18.908;2024-01-06T01:50:57;6.25;82.85
70708;SHT30;58277;47.316;18.908;2024-01-06T01:53:20;6.18;83.02
70708;SHT30;58277;47.316;18.908;2024-01-06T01:55:44;6.13;83.33
70708;SHT30;58277;47.316;18.908;2024-01-06T01:58:09;6.32;82.80
70708;SHT30;58277;47.316;18.908;2024-01-06T02:00:32;6.26;82.98
70708;SHT30;58277;47.316;18.908;2024-01-06T02:02:56;6.23;83.22
70708;SHT30;58277;47.316;18.908;2024-01-06T02:05:19;6.28;83.25
70708;SHT30;58277;47.316;18.908;2024-01-06T02:07:42;6.37;82.80
70708;SHT30;58277;47.316;18.908;2024-01-06T02:10:05;6.32;82.85
70708;SHT30;58277;47.316;18.908;2024-01-06T02:12:28;6.33;82.94
70708;SHT30;58277;47.316;18.908;2024-01-06T02:14:51;6.29;83.29
70708;SHT30;58277;47.316;18.908;2024-01-06T02:17:13;6.26;83.53
70708;SHT30;58277;47.316;18.908;2024-01-06T02:19:36;6.23;83.55
70708;SHT30;58277;47.316;18.908;2024-01-06T02:21:59;6.25;83.73
70708;SHT30;58277;47.316;18.908;2024-01-06T02:24:22;6.28;83.69
70708;SHT30;58277;47.316;18.908;2024-01-06T02:26:45;6.22;83.76
70708;SHT30;58277;47.316;18.908;2024-01-06T02:29:08;6.26;83.97
70708;SHT30;58277;47.316;18.908;2024-01-06T02:31:31;6.22;83.99
70708;SHT30;58277;47.316;18.908;2024-01-06T02:33:54;6.26;83.99
70708;SHT30;58277;47.316;18.908;2024-01-06T02:36:17;6.25;83.98
70708;SHT30;58277;47.316;18.908;2024-01-06T02:38:41;6.23;84.37
70708;SHT30;58277;47.316;18.908;2024-01-06T02:41:04;6.21;84.45
70708;SHT30;58277;47.316;18.908;2024-01-06T02:43:27;6.19;84.73
70708;SHT30;58277;47.316;18.908;2024-01-06T02:45:50;6.19;84.80
70708;SHT30;58277;47.316;18.908;2024-01-06T02:48:15;6.08;85.37
70708;SHT30;58277;47.316;18.908;2024-01-06T02:50:39;6.19;85.32
70708;SHT30;58277;47.316;18.908;2024-01-06T02:53:02;6.15;85.41
70708;SHT30;58277;47.316;18.908;2024-01-06T02:55:25;6.18;85.33
70708;SHT30;58277;47.316;18.908;2024-01-06T02:57:48;6.09;85.70
70708;SHT30;58277;47.316;18.908;2024-01-06T03:00:11;6.09;85.95
70708;SHT30;58277;47.316;18.908;2024-01-06T03:02:37;6.12;85.88
70708;SHT30;58277;47.316;18.908;2024-01-06T03:05:02;6.13;85.94
70708;SHT30;58277;47.316;18.908;2024-01-06T03:07:26;6.15;86.00
70708;SHT30;58277;47.316;18.908;2024-01-06T03:09:49;6.15;86.06
70708;SHT30;58277;47.316;18.908;2024-01-06T03:12:13;6.15;86.25
70708;SHT30;58277;47.316;18.908;2024-01-06T03:14:37;6.16;86.19
70708;SHT30;58277;47.316;18.908;2024-01-06T03:17:00;6.18;86.13
70708;SHT30;58277;47.316;18.908;2024-01-06T03:19:23;6.06;86.52
70708;SHT30;58277;47.316;18.908;2024-01-06T03:21:48;6.12;86.61
70708;SHT30;58277;47.316;18.908;2024-01-06T03:24:12;6.15;86.61
70708;SHT30;58277;47.316;18.908;2024-01-06T03:26:38;6.15;86.45
70708;SHT30;58277;47.316;18.908;2024-01-06T03:29:00;6.19;86.55
70708;SHT30;58277;47.316;18.908;2024-01-06T03:31:25;6.18;86.53
70708;SHT30;58277;47.316;18.908;2024-01-06T03:33:48;6.32;86.31
70708;SHT30;58277;47.316;18.908;2024-01-06T03:36:12;6.39;85.92
70708;SHT30;58277;47.316;18.908;2024-01-06T03:38:38;6.44;85.63
70708;SHT30;58277;47.316;18.908;2024-01-06T03:41:00;6.50;85.61
70708;SHT30;58277;47.316;18.908;2024-01-06T03:43:24;6.50;85.51
70708;SHT30;58277;47.316;18.908;2024-01-06T03:45:46;6.42;85.63
70708;SHT30;58277;47.316;18.908;2024-01-06T03:48:10;6.60;85.29
70708;SHT30;58277;47.316;18.908;2024-01-06T03:50:34;6.49;85.46
70708;SHT30;58277;47.316;18.908;2024-01-06T03:52:57;6.32;86.11
70708;SHT30;58277;47.316;18.908;2024-01-06T03:55:19;6.30;86.23
70708;SHT30;58277;47.316;18.908;2024-01-06T03:57:42;6.29;86.41
70708;SHT30;58277;47.316;18.908;2024-01-06T04:00:05;6.23;86.46
70708;SHT30;58277;47.316;18.908;2024-01-06T04:02:29;6.28;86.67
70708;SHT30;58277;47.316;18.908;2024-01-06T04:04:52;6.29;86.68
70708;SHT30;58277;47.316;18.908;2024-01-06T04:07:15;6.47;86.40
70708;SHT30;58277;47.316;18.908;2024-01-06T04:09:37;6.56;86.31
70708;SHT30;58277;47.316;18.908;2024-01-06T04:12:00;6.51;86.09
70708;SHT30;58277;47.316;18.908;2024-01-06T04:14:24;6.64;85.83
70708;SHT30;58277;47.316;18.908;2024-01-06T04:16:46;6.58;86.08
70708;SHT30;58277;47.316;18.908;2024-01-06T04:19:09;6.64;85.83
70708;SHT30;58277;47.316;18.908;2024-01-06T04:21:34;6.49;86.44
70708;SHT30;58277;47.316;18.908;2024-01-06T04:23:57;6.71;86.19
70708;SHT30;58277;47.316;18.908;2024-01-06T04:26:19;6.76;85.92
70708;SHT30;58277;47.316;18.908;2024-01-06T04:28:42;6.61;85.79
70708;SHT30;58277;47.316;18.908;2024-01-06T04:31:05;6.56;86.25
70708;SHT30;58277;47.316;18.908;2024-01-06T04:33:31;6.61;86.60
70708;SHT30;58277;47.316;18.908;2024-01-06T04:35:54;6.51;86.77
70708;SHT30;58277;47.316;18.908;2024-01-06T04:38:17;6.56;86.94
70708;SHT30;58277;47.316;18.908;2024-01-06T04:40:40;6.54;86.82
70708;SHT30;58277;47.316;18.908;2024-01-06T04:43:03;6.51;86.75
70708;SHT30;58277;47.316;18.908;2024-01-06T04:45:26;6.56;86.58
70708;SHT30;58277;47.316;18.908;2024-01-06T04:47:49;6.44;86.96
70708;SHT30;58277;47.316;18.908;2024-01-06T04:50:12;6.42;87.17
70708;SHT30;58277;47.316;18.908;2024-01-06T04:52:35;6.39;87.51
70708;SHT30;58277;47.316;18.908;2024-01-06T04:54:58;6.42;87.50
70708;SHT30;58277;47.316;18.908;2024-01-06T04:57:20;6.56;86.97
70708;SHT30;58277;47.316;18.908;2024-01-06T04:59:44;6.50;87.21
70708;SHT30;58277;47.316;18.908;2024-01-06T05:02:07;6.43;87.66
70708;SHT30;58277;47.316;18.908;2024-01-06T05:04:30;6.40;87.81
70708;SHT30;58277;47.316;18.908;2024-01-06T05:06:54;6.47;87.86
70708;SHT30;58277;47.316;18.908;2024-01-06T05:09:18;6.47;87.76
70708;SHT30;58277;47.316;18.908;2024-01-06T05:11:43;6.56;87.71
70708;SHT30;58277;47.316;18.908;2024-01-06T05:14:06;6.51;87.89
70708;SHT30;58277;47.316;18.908;2024-01-06T05:16:29;6.47;88.05
70708;SHT30;58277;47.316;18.908;2024-01-06T05:18:52;6.46;88.19
70708;SHT30;58277;47.316;18.908;2024-01-06T05:21:15;6.43;88.45
70708;SHT30;58277;47.316;18.908;2024-01-06T05:23:38;6.40;88.25
70708;SHT30;58277;47.316;18.908;2024-01-06T05:26:01;6.42;88.49
70708;SHT30;58277;47.316;18.908;2024-01-06T05:28:24;6.43;88.64
70708;SHT30;58277;47.316;18.908;2024-01-06T05:30:47;6.32;88.74
70708;SHT30;58277;47.316;18.908;2024-01-06T05:33:12;6.25;88.97
70708;SHT30;58277;47.316;18.908;2024-01-06T05:35:36;6.39;88.92
70708;SHT30;58277;47.316;18.908;2024-01-06T05:38:00;6.26;89.09
70708;SHT30;58277;47.316;18.908;2024-01-06T05:40:23;6.33;89.14
70708;SHT30;58277;47.316;18.908;2024-01-06T05:42:46;6.36;89.12
70708;SHT30;58277;47.316;18.908;2024-01-06T05:45:11;6.43;88.76
70708;SHT30;58277;47.316;18.908;2024-01-06T05:47:37;6.43;88.74
70708;SHT30;58277;47.316;18.908;2024-01-06T05:50:01;6.53;88.57
70708;SHT30;58277;47.316;18.908;2024-01-06T05:52:24;6.42;88.57
70708;SHT30;58277;47.316;18.908;2024-01-06T05:54:47;6.53;88.67
70708;SHT30;58277;47.316;18.908;2024-01-06T05:57:10;6.47;88.81
70708;SHT30;58277;47.316;18.908;2024-01-06T05:59:34;6.54;88.55
70708;SHT30;58277;47.316;18.908;2024-01-06T06:01:57;6.71;88.61
70708;SHT30;58277;47.316;18.908;2024-01-06T06:04:20;6.67;88.52
70708;SHT30;58277;47.316;18.908;2024-01-06T06:06:43;6.58;88.45
70708;SHT30;58277;47.316;18.908;2024-01-06T06:09:05;6.42;88.79
70708;SHT30;58277;47.316;18.908;2024-01-06T06:11:30;6.34;89.35
70708;SHT30;58277;47.316;18.908;2024-01-06T06:13:52;6.26;89.72
70708;SHT30;58277;47.316;18.908;2024-01-06T06:16:15;6.23;89.90
70708;SHT30;58277;47.316;18.908;2024-01-06T06:18:38;6.16;90.30
70708;SHT30;58277;47.316;18.908;2024-01-06T06:21:02;6.12;90.48
70708;SHT30;58277;47.316;18.908;2024-01-06T06:23:27;6.08;90.64
70708;SHT30;58277;47.316;18.908;2024-01-06T06:25:51;6.06;90.65
70708;SHT30;58277;47.316;18.908;2024-01-06T06:28:14;5.99;90.85
70708;SHT30;58277;47.316;18.908;2024-01-06T06:30:36;5.98;91.12
70708;SHT30;58277;47.316;18.908;2024-01-06T06:32:59;6.01;91.10
70708;SHT30;58277;47.316;18.908;2024-01-06T06:35:23;6.08;90.94
70708;SHT30;58277;47.316;18.908;2024-01-06T06:37:46;6.04;91.00
70708;SHT30;58277;47.316;18.908;2024-01-06T06:40:09;6.01;91.01
70708;SHT30;58277;47.316;18.908;2024-01-06T06:42:33;6.04;91.14
70708;SHT30;58277;47.316;18.908;2024-01-06T06:44:55;5.97;91.19
70708;SHT30;58277;47.316;18.908;2024-01-06T06:47:18;6.01;91.37
70708;SHT30;58277;47.316;18.908;2024-01-06T06:49:41;5.99;91.35
70708;SHT30;58277;47.316;18.908;2024-01-06T06:52:04;6.02;91.39
70708;SHT30;58277;47.316;18.908;2024-01-06T06:54:29;6.05;91.29
70708;SHT30;58277;47.316;18.908;2024-01-06T06:56:52;5.95;91.25
70708;SHT30;58277;47.316;18.908;2024-01-06T06:59:14;5.98;91.71
70708;SHT30;58277;47.316;18.908;2024-01-06T07:01:37;5.94;91.52
70708;SHT30;58277;47.316;18.908;2024-01-06T07:04:01;5.90;91.63
70708;SHT30;58277;47.316;18.908;2024-01-06T07:06:24;5.90;91.85
70708;SHT30;58277;47.316;18.908;2024-01-06T07:08:47;5.90;91.90
70708;SHT30;58277;47.316;18.908;2024-01-06T07:11:10;5.97;91.80
70708;SHT30;58277;47.316;18.908;2024-01-06T07:13:34;6.05;91.76
70708;SHT30;58277;47.316;18.908;2024-01-06T07:15:56;6.18;91.41
70708;SHT30;58277;47.316;18.908;2024-01-06T07:18:36;6.16;91.14
70708;SHT30;58277;47.316;18.908;2024-01-06T07:20:59;6.15;91.15
70708;SHT30;58277;47.316;18.908;2024-01-06T07:23:21;6.16;91.19
70708;SHT30;58277;47.316;18.908;2024-01-06T07:25:44;6.19;91.15
70708;SHT30;58277;47.316;18.908;2024-01-06T07:28:07;6.22;91.30
70708;SHT30;58277;47.316;18.908;2024-01-06T07:30:31;6.18;91.13
70708;SHT30;58277;47.316;18.908;2024-01-06T07:32:54;6.18;91.31
70708;SHT30;58277;47.316;18.908;2024-01-06T07:35:16;6.15;91.59
70708;SHT30;58277;47.316;18.908;2024-01-06T07:37:39;6.09;91.58
70708;SHT30;58277;47.316;18.908;2024-01-06T07:40:02;6.13;91.58
70708;SHT30;58277;47.316;18.908;2024-01-06T07:42:25;6.15;91.44
70708;SHT30;58277;47.316;18.908;2024-01-06T07:44:48;6.13;91.46
70708;SHT30;58277;47.316;18.908;2024-01-06T07:47:11;6.09;91.52
70708;SHT30;58277;47.316;18.908;2024-01-06T07:49:33;6.21;91.54
70708;SHT30;58277;47.316;18.908;2024-01-06T07:51:56;6.13;91.45
70708;SHT30;58277;47.316;18.908;2024-01-06T07:54:19;6.15;91.51
70708;SHT30;58277;47.316;18.908;2024-01-06T07:56:42;6.12;91.62
70708;SHT30;58277;47.316;18.908;2024-01-06T07:59:05;6.15;91.63
70708;SHT30;58277;47.316;18.908;2024-01-06T08:01:28;6.18;91.60
70708;SHT30;58277;47.316;18.908;2024-01-06T08:03:51;6.22;91.43
70708;SHT30;58277;47.316;18.908;2024-01-06T08:06:14;6.22;91.37
70708;SHT30;58277;47.316;18.908;2024-01-06T08:08:38;6.32;91.30
70708;SHT30;58277;47.316;18.908;2024-01-06T08:11:01;6.34;91.02
70708;SHT30;58277;47.316;18.908;2024-01-06T08:13:24;6.43;90.84
70708;SHT30;58277;47.316;18.908;2024-01-06T08:15:47;6.40;90.89
70708;SHT30;58277;47.316;18.908;2024-01-06T08:18:11;6.44;90.80
70708;SHT30;58277;47.316;18.908;2024-01-06T08:20:36;6.50;90.64
70708;SHT30;58277;47.316;18.908;2024-01-06T08:22:58;6.39;90.85
70708;SHT30;58277;47.316;18.908;2024-01-06T08:25:21;6.43;90.85
70708;SHT30;58277;47.316;18.908;2024-01-06T08:27:44;6.44;90.87
70708;SHT30;58277;47.316;18.908;2024-01-06T08:30:08;6.51;90.70
70708;SHT30;58277;47.316;18.908;2024-01-06T08:32:32;6.57;90.57
70708;SHT30;58277;47.316;18.908;2024-01-06T08:34:55;6.57;90.50
70708;SHT30;58277;47.316;18.908;2024-01-06T08:37:19;6.56;90.53
70708;SHT30;58277;47.316;18.908;2024-01-06T08:39:42;6.58;90.48
70708;SHT30;58277;47.316;18.908;2024-01-06T08:42:08;6.58;90.55
70708;SHT30;58277;47.316;18.908;2024-01-06T08:44:35;6.60;90.57
70708;SHT30;58277;47.316;18.908;2024-01-06T08:46:58;6.64;90.66
70708;SHT30;58277;47.316;18.908;2024-01-06T08:49:21;6.64;90.69
70708;SHT30;58277;47.316;18.908;2024-01-06T08:51:44;6.67;90.60
70708;SHT30;58277;47.316;18.908;2024-01-06T08:54:06;6.69;90.55
70708;SHT30;58277;47.316;18.908;2024-01-06T08:56:30;6.74;90.45
70708;SHT30;58277;47.316;18.908;2024-01-06T08:58:53;6.78;90.27
70708;SHT30;58277;47.316;18.908;2024-01-06T09:01:15;6.78;90.27
70708;SHT30;58277;47.316;18.908;2024-01-06T09:03:38;6.85;90.12
70708;SHT30;58277;47.316;18.908;2024-01-06T09:06:01;6.80;89.93
70708;SHT30;58277;47.316;18.908;2024-01-06T09:08:24;6.80;90.38
70708;SHT30;58277;47.316;18.908;2024-01-06T09:10:47;6.84;90.15
70708;SHT30;58277;47.316;18.908;2024-01-06T09:13:10;6.88;90.04
70708;SHT30;58277;47.316;18.908;2024-01-06T09:15:33;6.87;90.07
70708;SHT30;58277;47.316;18.908;2024-01-06T09:17:55;6.85;90.14
70708;SHT30;58277;47.316;18.908;2024-01-06T09:20:18;6.87;90.04
70708;SHT30;58277;47.316;18.908;2024-01-06T09:22:45;6.88;90.12
70708;SHT30;58277;47.316;18.908;2024-01-06T09:25:08;6.99;89.80
70708;SHT30;58277;47.316;18.908;2024-01-06T09:27:30;6.97;89.43
70708;SHT30;58277;47.316;18.908;2024-01-06T09:29:53;7.01;89.39
70708;SHT30;58277;47.316;18.908;2024-01-06T09:32:16;6.94;89.60
70708;SHT30;58277;47.316;18.908;2024-01-06T09:34:39;6.97;89.50
70708;SHT30;58277;47.316;18.908;2024-01-06T09:37:02;6.98;89.49
70708;SHT30;58277;47.316;18.908;2024-01-06T09:39:24;6.92;89.50
70708;SHT30;58277;47.316;18.908;2024-01-06T09:41:47;6.84;89.77
70708;SHT30;58277;47.316;18.908;2024-01-06T09:44:10;6.84;90.02
70708;SHT30;58277;47.316;18.908;2024-01-06T09:46:35;6.85;90.33
70708;SHT30;58277;47.316;18.908;2024-01-06T09:49:01;6.92;90.36
70708;SHT30;58277;47.316;18.908;2024-01-06T09:51:24;6.94;90.47
70708;SHT30;58277;47.316;18.908;2024-01-06T09:53:56;6.94;90.24
70708;SHT30;58277;47.316;18.908;2024-01-06T09:56:19;6.91;90.33
70708;SHT30;58277;47.316;18.908;2024-01-06T09:58:42;6.85;90.73
70708;SHT30;58277;47.316;18.908;2024-01-06T10:01:06;6.90;90.89
70708;SHT30;58277;47.316;18.908;2024-01-06T10:03:30;6.87;90.64
70708;SHT30;58277;47.316;18.908;2024-01-06T10:05:53;6.85;90.74
70708;SHT30;58277;47.316;18.908;2024-01-06T10:08:17;6.90;90.88
70708;SHT30;58277;47.316;18.908;2024-01-06T10:10:40;6.98;90.99
70708;SHT30;58277;47.316;18.908;2024-01-06T10:13:03;7.01;90.66
70708;SHT30;58277;47.316;18.908;2024-01-06T10:15:27;7.01;90.94
70708;SHT30;58277;47.316;18.908;2024-01-06T10:17:50;6.91;90.98
70708;SHT30;58277;47.316;18.908;2024-01-06T10:20:13;6.88;91.17
70708;SHT30;58277;47.316;18.908;2024-01-06T10:22:39;6.91;91.38
70708;SHT30;58277;47.316;18.908;2024-01-06T10:25:05;6.99;91.23
70708;SHT30;58277;47.316;18.908;2024-01-06T10:27:28;7.01;91.23
70708;SHT30;58277;47.316;18.908;2024-01-06T10:29:51;6.97;91.19
70708;SHT30;58277;47.316;18.908;2024-01-06T10:32:14;6.98;91.20
70708;SHT30;58277;47.316;18.908;2024-01-06T10:34:37;7.15;91.09
70708;SHT30;58277;47.316;18.908;2024-01-06T10:37:00;7.16;90.62
70708;SHT30;58277;47.316;18.908;2024-01-06T10:39:23;7.18;90.94
70708;SHT30;58277;47.316;18.908;2024-01-06T10:41:48;7.22;90.91
70708;SHT30;58277;47.316;18.908;2024-01-06T10:44:12;7.14;90.84
70708;SHT30;58277;47.316;18.908;2024-01-06T10:46:36;7.15;91.06
70708;SHT30;58277;47.316;18.908;2024-01-06T10:48:59;7.19;90.99
70708;SHT30;58277;47.316;18.908;2024-01-06T10:51:25;7.14;91.22
70708;SHT30;58277;47.316;18.908;2024-01-06T10:53:48;7.23;91.32
70708;SHT30;58277;47.316;18.908;2024-01-06T10:56:12;7.20;91.29
70708;SHT30;58277;47.316;18.908;2024-01-06T10:58:36;7.20;91.20
70708;SHT30;58277;47.316;18.908;2024-01-06T11:01:05;7.19;91.36
70708;SHT30;58277;47.316;18.908;2024-01-06T11:03:29;7.09;91.34
70708;SHT30;58277;47.316;18.908;2024-01-06T11:05:52;7.18;91.53
70708;SHT30;58277;47.316;18.908;2024-01-06T11:08:17;7.22;91.33
70708;SHT30;58277;47.316;18.908;2024-01-06T11:10:40;7.30;91.14
70708;SHT30;58277;47.316;18.908;2024-01-06T11:15:54;7.18;91.42
70708;SHT30;58277;47.316;18.908;2024-01-06T11:18:39;7.26;91.62
70708;SHT30;58277;47.316;18.908;2024-01-06T11:23:37;7.30;91.43
70708;SHT30;58277;47.316;18.908;2024-01-06T11:26:01;7.25;91.44
70708;SHT30;58277;47.316;18.908;2024-01-06T11:28:24;7.30;91.52
70708;SHT30;58277;47.316;18.908;2024-01-06T11:31:04;7.23;91.47
70708;SHT30;58277;47.316;18.908;2024-01-06T11:33:28;7.30;91.44
70708;SHT30;58277;47.316;18.908;2024-01-06T11:35:52;7.29;91.36
70708;SHT30;58277;47.316;18.908;2024-01-06T11:38:16;7.33;91.54
70708;SHT30;58277;47.316;18.908;2024-01-06T11:40:40;7.39;91.46
70708;SHT30;58277;47.316;18.908;2024-01-06T11:43:09;7.29;91.25
70708;SHT30;58277;47.316;18.908;2024-01-06T11:45:32;7.32;91.43
70708;SHT30;58277;47.316;18.908;2024-01-06T11:48:03;7.25;91.42
70708;SHT30;58277;47.316;18.908;2024-01-06T11:50:27;7.36;91.51
70708;SHT30;58277;47.316;18.908;2024-01-06T11:52:50;7.45;91.19
70708;SHT30;58277;47.316;18.908;2024-01-06T11:55:13;7.45;91.13
70708;SHT30;58277;47.316;18.908;2024-01-06T11:57:37;7.43;91.18
70708;SHT30;58277;47.316;18.908;2024-01-06T12:00:00;7.36;90.94
70708;SHT30;58277;47.316;18.908;2024-01-06T12:02:31;7.32;91.55
70708;SHT30;58277;47.316;18.908;2024-01-06T12:04:54;7.39;91.71
70708;SHT30;58277;47.316;18.908;2024-01-06T12:07:18;7.33;91.55
70708;SHT30;58277;47.316;18.908;2024-01-06T12:09:42;7.28;91.72
70708;SHT30;58277;47.316;18.908;2024-01-06T12:12:05;7.23;91.67
70708;SHT30;58277;47.316;18.908;2024-01-06T12:14:29;7.16;92.04
70708;SHT30;58277;47.316;18.908;2024-01-06T12:16:52;7.18;92.21
70708;SHT30;58277;47.316;18.908;2024-01-06T12:19:15;7.23;92.27
70708;SHT30;58277;47.316;18.908;2024-01-06T12:21:38;7.25;92.32
70708;SHT30;58277;47.316;18.908;2024-01-06T12:24:18;7.23;92.33
70708;SHT30;58277;47.316;18.908;2024-01-06T12:26:44;7.29;92.31
70708;SHT30;58277;47.316;18.908;2024-01-06T12:29:08;7.23;92.16
70708;SHT30;58277;47.316;18.908;2024-01-06T12:31:31;7.28;92.30
70708;SHT30;58277;47.316;18.908;2024-01-06T12:33:58;7.25;92.36
70708;SHT30;58277;47.316;18.908;2024-01-06T12:36:22;7.23;92.57
70708;SHT30;58277;47.316;18.908;2024-01-06T12:38:49;7.29;92.63
70708;SHT30;58277;47.316;18.908;2024-01-06T12:41:13;7.33;92.64
70708;SHT30;58277;47.316;18.908;2024-01-06T12:43:37;7.35;92.53
70708;SHT30;58277;47.316;18.908;2024-01-06T12:46:01;7.29;92.80
70708;SHT30;58277;47.316;18.908;2024-01-06T12:48:24;7.28;92.85
70708;SHT30;58277;47.316;18.908;2024-01-06T12:50:50;7.29;93.05
70708;SHT30;58277;47.316;18.908;2024-01-06T12:53:13;7.30;93.16
70708;SHT30;58277;47.316;18.908;2024-01-06T12:55:37;7.32;93.33
70708;SHT30;58277;47.316;18.908;2024-01-06T12:58:02;7.37;93.19
70708;SHT30;58277;47.316;18.908;2024-01-06T13:00:26;7.36;93.07
70708;SHT30;58277;47.316;18.908;2024-01-06T13:02:49;7.40;93.16
70708;SHT30;58277;47.316;18.908;2024-01-06T13:05:12;7.40;93.07
70708;SHT30;58277;47.316;18.908;2024-01-06T13:07:35;7.36;93.11
70708;SHT30;58277;47.316;18.908;2024-01-06T13:09:58;7.43;93.04
70708;SHT30;58277;47.316;18.908;2024-01-06T13:12:22;7.43;93.04
70708;SHT30;58277;47.316;18.908;2024-01-06T13:14:46;7.36;93.08
70708;SHT30;58277;47.316;18.908;2024-01-06T13:17:13;7.45;93.30
70708;SHT30;58277;47.316;18.908;2024-01-06T13:19:37;7.39;93.15
70708;SHT30;58277;47.316;18.908;2024-01-06T13:21:59;7.36;93.20
70708;SHT30;58277;47.316;18.908;2024-01-06T13:24:22;7.42;93.40
70708;SHT30;58277;47.316;18.908;2024-01-06T13:26:46;7.43;93.49
70708;SHT30;58277;47.316;18.908;2024-01-06T13:29:09;7.46;93.40
70708;SHT30;58277;47.316;18.908;2024-01-06T13:31:31;7.53;93.34
70708;SHT30;58277;47.316;18.908;2024-01-06T13:33:55;7.55;92.81
70708;SHT30;58277;47.316;18.908;2024-01-06T13:36:21;7.50;92.80
70708;SHT30;58277;47.316;18.908;2024-01-06T13:38:44;7.43;92.90
70708;SHT30;58277;47.316;18.908;2024-01-06T13:41:07;7.37;93.01
70708;SHT30;58277;47.316;18.908;2024-01-06T13:43:30;7.40;93.34
70708;SHT30;58277;47.316;18.908;2024-01-06T13:45:54;7.45;93.28
70708;SHT30;58277;47.316;18.908;2024-01-06T13:48:18;7.45;93.29
70708;SHT30;58277;47.316;18.908;2024-01-06T13:50:42;7.55;93.39
70708;SHT30;58277;47.316;18.908;2024-01-06T13:53:05;7.60;92.95
70708;SHT30;58277;47.316;18.908;2024-01-06T13:55:31;7.50;92.92
70708;SHT30;58277;47.316;18.908;2024-01-06T13:57:54;7.40;92.86
70708;SHT30;58277;47.316;18.908;2024-01-06T14:00:18;7.36;93.18
70708;SHT30;58277;47.316;18.908;2024-01-06T14:02:43;7.45;93.20
70708;SHT30;58277;47.316;18.908;2024-01-06T14:05:06;7.42;93.19
70708;SHT30;58277;47.316;18.908;2024-01-06T14:07:30;7.37;93.15
70708;SHT30;58277;47.316;18.908;2024-01-06T14:09:53;7.33;93.41
70708;SHT30;58277;47.316;18.908;2024-01-06T14:12:18;7.30;93.56
70708;SHT30;58277;47.316;18.908;2024-01-06T14:14:41;7.26;93.59
70708;SHT30;58277;47.316;18.908;2024-01-06T14:17:04;7.32;93.60
70708;SHT30;58277;47.316;18.908;2024-01-06T14:19:26;7.33;93.42
70708;SHT30;58277;47.316;18.908;2024-01-06T14:21:49;7.40;93.26
70708;SHT30;58277;47.316;18.908;2024-01-06T14:24:14;7.36;93.26
70708;SHT30;58277;47.316;18.908;2024-01-06T14:26:37;7.35;93.27
70708;SHT30;58277;47.316;18.908;2024-01-06T14:29:03;7.33;93.37
70708;SHT30;58277;47.316;18.908;2024-01-06T14:31:26;7.37;93.27
70708;SHT30;58277;47.316;18.908;2024-01-06T14:33:51;7.32;93.29
70708;SHT30;58277;47.316;18.908;2024-01-06T14:36:18;7.30;93.25
70708;SHT30;58277;47.316;18.908;2024-01-06T14:38:41;7.28;93.28
70708;SHT30;58277;47.316;18.908;2024-01-06T14:41:04;7.29;93.24
70708;SHT30;58277;47.316;18.908;2024-01-06T14:43:26;7.26;93.30
70708;SHT30;58277;47.316;18.908;2024-01-06T14:45:49;7.29;93.38
70708;SHT30;58277;47.316;18.908;2024-01-06T14:48:12;7.28;93.19
70708;SHT30;58277;47.316;18.908;2024-01-06T14:50:37;7.26;93.25
70708;SHT30;58277;47.316;18.908;2024-01-06T14:52:59;7.25;93.31
70708;SHT30;58277;47.316;18.908;2024-01-06T14:55:22;7.30;93.24
70708;SHT30;58277;47.316;18.908;2024-01-06T14:57:45;7.30;93.32
70708;SHT30;58277;47.316;18.908;2024-01-06T15:00:08;7.23;93.20
70708;SHT30;58277;47.316;18.908;2024-01-06T15:02:33;7.22;93.05
70708;SHT30;58277;47.316;18.908;2024-01-06T15:04:56;7.20;93.13
70708;SHT30;58277;47.316;18.908;2024-01-06T15:07:19;7.19;93.28
70708;SHT30;58277;47.316;18.908;2024-01-06T15:09:42;7.22;93.19
70708;SHT30;58277;47.316;18.908;2024-01-06T15:12:05;7.23;93.09